PGT8PZ LRCL-LTFJ
Flight info
| Callsign | PGT8PZ |
|---|---|
| Flight time | 1h 19m |
| Altitude | 37000 |
| Route | IRLOX DCT BULEN L605 RIXEN DCT GINLI |
| Aircraft | A320/M-SDE3FGHIRWY/LB1 |
Departure
| Time | 2026-04-27 13:30 |
|---|---|
| Airport | Avram Iancu Cluj International Airport (LRCL) |
Arrival
| Time | 2026-04-27 14:50 |
|---|---|
| Airport | Istanbul Sabiha Gökçen International Airport (LTFJ) |
| Time | Latitude | Longitude | Altitude | Speed | Heading |
|---|---|---|---|---|---|
| 2026-04-27 13:10 | 46.78540 | 23.69249 | 1043 ft | 0 kts | 252° |
| 2026-04-27 13:23 | 46.78540 | 23.69251 | 1070 ft | 2 kts | 252° |
| 2026-04-27 13:23 | 46.78546 | 23.69287 | 1043 ft | 4 kts | 265° |
| 2026-04-27 13:24 | 46.78544 | 23.69324 | 1043 ft | 4 kts | 296° |
| 2026-04-27 13:24 | 46.78531 | 23.69345 | 1043 ft | 1 kts | 342° |
| 2026-04-27 13:24 | 46.78527 | 23.69347 | 1043 ft | 0 kts | 342° |
| 2026-04-27 13:26 | 46.78566 | 23.69329 | 1043 ft | 8 kts | 342° |
| 2026-04-27 13:26 | 46.78612 | 23.69307 | 1043 ft | 7 kts | 341° |
| 2026-04-27 13:27 | 46.78695 | 23.69267 | 1043 ft | 15 kts | 341° |
| 2026-04-27 13:27 | 46.78802 | 23.69215 | 1043 ft | 17 kts | 342° |
| 2026-04-27 13:27 | 46.78916 | 23.69200 | 1043 ft | 17 kts | 43° |
| 2026-04-27 13:27 | 46.78960 | 23.69358 | 1043 ft | 18 kts | 70° |
| 2026-04-27 13:28 | 46.78992 | 23.69523 | 1043 ft | 15 kts | 83° |
| 2026-04-27 13:28 | 46.79022 | 23.69616 | 1043 ft | 7 kts | 330° |
| 2026-04-27 13:28 | 46.79010 | 23.69576 | 1043 ft | 4 kts | 239° |
| 2026-04-27 13:28 | 46.79005 | 23.69557 | 1043 ft | 0 kts | 251° |
| 2026-04-27 13:29 | 46.78981 | 23.69451 | 1043 ft | 41 kts | 251° |
| 2026-04-27 13:29 | 46.78806 | 23.68674 | 1043 ft | 115 kts | 252° |
| 2026-04-27 13:30 | 46.78501 | 23.67312 | 1220 ft | 153 kts | 252° |
| 2026-04-27 13:30 | 46.78174 | 23.65865 | 1966 ft | 149 kts | 254° |
| 2026-04-27 13:30 | 46.77846 | 23.64450 | 2787 ft | 146 kts | 252° |
| 2026-04-27 13:30 | 46.77510 | 23.62991 | 3296 ft | 161 kts | 252° |
| 2026-04-27 13:31 | 46.76905 | 23.61496 | 3598 ft | 186 kts | 220° |
| 2026-04-27 13:31 | 46.75671 | 23.60699 | 3897 ft | 209 kts | 184° |
| 2026-04-27 13:31 | 46.74190 | 23.61219 | 4250 ft | 234 kts | 152° |
| 2026-04-27 13:31 | 46.72680 | 23.62389 | 4713 ft | 258 kts | 151° |
| 2026-04-27 13:32 | 46.71597 | 23.63245 | 5234 ft | 266 kts | 151° |
| 2026-04-27 13:32 | 46.71046 | 23.63681 | 5529 ft | 269 kts | 152° |
| 2026-04-27 13:32 | 46.69390 | 23.64993 | 6526 ft | 273 kts | 153° |
| 2026-04-27 13:32 | 46.67704 | 23.66325 | 7407 ft | 279 kts | 153° |
| 2026-04-27 13:33 | 46.65970 | 23.67688 | 8233 ft | 287 kts | 154° |
| 2026-04-27 13:33 | 46.64187 | 23.69078 | 9066 ft | 295 kts | 154° |
| 2026-04-27 13:33 | 46.62373 | 23.70488 | 9878 ft | 303 kts | 154° |
| 2026-04-27 13:33 | 46.60482 | 23.71956 | 10527 ft | 318 kts | 154° |
| 2026-04-27 13:34 | 46.58456 | 23.73524 | 10833 ft | 342 kts | 154° |
| 2026-04-27 13:34 | 46.56286 | 23.75204 | 11134 ft | 364 kts | 154° |
| 2026-04-27 13:34 | 46.54024 | 23.76964 | 11709 ft | 373 kts | 154° |
| 2026-04-27 13:34 | 46.51717 | 23.78761 | 12432 ft | 379 kts | 154° |
| 2026-04-27 13:35 | 46.49378 | 23.80579 | 13156 ft | 384 kts | 154° |
| 2026-04-27 13:35 | 46.47006 | 23.82418 | 13887 ft | 389 kts | 154° |
| 2026-04-27 13:35 | 46.44599 | 23.84281 | 14543 ft | 394 kts | 154° |
| 2026-04-27 13:35 | 46.42171 | 23.86162 | 15198 ft | 398 kts | 154° |
| 2026-04-27 13:36 | 46.39718 | 23.88058 | 15848 ft | 401 kts | 154° |
| 2026-04-27 13:36 | 46.37239 | 23.89971 | 16507 ft | 405 kts | 154° |
| 2026-04-27 13:36 | 46.34742 | 23.91894 | 17149 ft | 408 kts | 155° |
| 2026-04-27 13:36 | 46.32218 | 23.93830 | 17744 ft | 413 kts | 155° |
| 2026-04-27 13:37 | 46.29661 | 23.95788 | 18346 ft | 417 kts | 154° |
| 2026-04-27 13:37 | 46.27093 | 23.97755 | 18893 ft | 421 kts | 154° |
| 2026-04-27 13:37 | 46.24495 | 23.99747 | 19437 ft | 424 kts | 155° |
| 2026-04-27 13:37 | 46.21882 | 24.01749 | 19978 ft | 427 kts | 155° |
| 2026-04-27 13:38 | 46.19247 | 24.03769 | 20516 ft | 430 kts | 155° |
| 2026-04-27 13:38 | 46.16601 | 24.05794 | 21035 ft | 432 kts | 155° |
| 2026-04-27 13:38 | 46.13929 | 24.07834 | 21554 ft | 435 kts | 155° |
| 2026-04-27 13:38 | 46.11245 | 24.09876 | 22058 ft | 438 kts | 155° |
| 2026-04-27 13:39 | 46.08533 | 24.11939 | 22562 ft | 441 kts | 155° |
| 2026-04-27 13:39 | 46.05843 | 24.13988 | 23057 ft | 444 kts | 155° |
| 2026-04-27 13:39 | 46.03102 | 24.16074 | 23532 ft | 447 kts | 155° |
| 2026-04-27 13:39 | 46.00344 | 24.18168 | 23962 ft | 450 kts | 155° |
| 2026-04-27 13:40 | 45.97568 | 24.20271 | 24353 ft | 452 kts | 155° |
| 2026-04-27 13:40 | 45.94775 | 24.22384 | 24745 ft | 455 kts | 155° |
| 2026-04-27 13:40 | 45.91966 | 24.24508 | 25143 ft | 457 kts | 155° |
| 2026-04-27 13:40 | 45.89147 | 24.26639 | 25515 ft | 460 kts | 155° |
| 2026-04-27 13:41 | 45.86302 | 24.28784 | 25893 ft | 462 kts | 155° |
| 2026-04-27 13:41 | 45.83448 | 24.30934 | 26278 ft | 465 kts | 155° |
| 2026-04-27 13:41 | 45.80578 | 24.33098 | 26642 ft | 467 kts | 156° |
| 2026-04-27 13:41 | 45.77693 | 24.35268 | 27007 ft | 470 kts | 156° |
| 2026-04-27 13:42 | 45.74797 | 24.37444 | 27354 ft | 472 kts | 156° |
| 2026-04-27 13:42 | 45.71884 | 24.39632 | 27721 ft | 474 kts | 156° |
| 2026-04-27 13:42 | 45.68950 | 24.41833 | 28056 ft | 476 kts | 156° |
| 2026-04-27 13:42 | 45.66010 | 24.44037 | 28386 ft | 479 kts | 156° |
| 2026-04-27 13:43 | 45.63042 | 24.46254 | 28696 ft | 481 kts | 156° |
| 2026-04-27 13:43 | 45.60063 | 24.48473 | 29020 ft | 484 kts | 156° |
| 2026-04-27 13:43 | 45.57078 | 24.50698 | 29378 ft | 486 kts | 156° |
| 2026-04-27 13:43 | 45.54072 | 24.52940 | 29708 ft | 487 kts | 156° |
| 2026-04-27 13:44 | 45.51064 | 24.55184 | 30142 ft | 486 kts | 157° |
| 2026-04-27 13:44 | 45.48078 | 24.57407 | 30594 ft | 484 kts | 157° |
| 2026-04-27 13:44 | 45.45099 | 24.59622 | 30993 ft | 482 kts | 157° |
| 2026-04-27 13:44 | 45.42127 | 24.61826 | 31379 ft | 481 kts | 157° |
| 2026-04-27 13:45 | 45.39157 | 24.64025 | 31754 ft | 481 kts | 157° |
| 2026-04-27 13:45 | 45.36228 | 24.66189 | 32140 ft | 480 kts | 156° |
| 2026-04-27 13:45 | 45.33270 | 24.68372 | 32545 ft | 479 kts | 157° |
| 2026-04-27 13:45 | 45.30275 | 24.70583 | 32910 ft | 479 kts | 157° |
| 2026-04-27 13:46 | 45.27356 | 24.72735 | 33278 ft | 478 kts | 157° |
| 2026-04-27 13:46 | 45.24402 | 24.74909 | 33645 ft | 477 kts | 157° |
| 2026-04-27 13:46 | 45.21455 | 24.77073 | 34011 ft | 477 kts | 156° |
| 2026-04-27 13:46 | 45.18514 | 24.79231 | 34358 ft | 476 kts | 156° |
| 2026-04-27 13:47 | 45.15571 | 24.81393 | 34682 ft | 475 kts | 156° |
| 2026-04-27 13:47 | 45.12634 | 24.83546 | 34996 ft | 475 kts | 156° |
| 2026-04-27 13:47 | 45.09692 | 24.85697 | 35272 ft | 475 kts | 156° |
| 2026-04-27 13:47 | 45.06760 | 24.87840 | 35553 ft | 475 kts | 156° |
| 2026-04-27 13:48 | 45.03822 | 24.89986 | 35827 ft | 475 kts | 156° |
| 2026-04-27 13:48 | 45.00886 | 24.92126 | 36103 ft | 475 kts | 156° |
| 2026-04-27 13:48 | 44.97948 | 24.94266 | 36371 ft | 474 kts | 156° |
| 2026-04-27 13:48 | 44.95018 | 24.96398 | 36644 ft | 474 kts | 156° |
| 2026-04-27 13:49 | 44.92090 | 24.98529 | 36909 ft | 473 kts | 156° |
| 2026-04-27 13:49 | 44.89165 | 25.00655 | 37153 ft | 473 kts | 156° |
| 2026-04-27 13:49 | 44.83297 | 25.04901 | 37227 ft | 473 kts | 156° |
| 2026-04-27 13:50 | 44.77435 | 25.09132 | 37229 ft | 473 kts | 156° |
| 2026-04-27 13:50 | 44.71618 | 25.13334 | 37231 ft | 472 kts | 156° |
| 2026-04-27 13:51 | 44.65772 | 25.17545 | 37227 ft | 472 kts | 156° |
| 2026-04-27 13:51 | 44.59923 | 25.21747 | 37226 ft | 472 kts | 156° |
| 2026-04-27 13:52 | 44.54060 | 25.25939 | 37232 ft | 472 kts | 156° |
| 2026-04-27 13:52 | 44.48199 | 25.30132 | 37210 ft | 473 kts | 156° |
| 2026-04-27 13:53 | 44.39408 | 25.36395 | 37225 ft | 472 kts | 156° |
| 2026-04-27 13:54 | 44.33588 | 25.40533 | 37227 ft | 472 kts | 156° |
| 2026-04-27 13:54 | 44.27734 | 25.44684 | 37223 ft | 472 kts | 157° |
| 2026-04-27 13:55 | 44.21874 | 25.48826 | 37213 ft | 472 kts | 156° |
| 2026-04-27 13:55 | 44.16004 | 25.52966 | 37218 ft | 473 kts | 156° |
| 2026-04-27 13:56 | 44.10133 | 25.57106 | 37216 ft | 472 kts | 156° |
| 2026-04-27 13:56 | 44.04271 | 25.61233 | 37208 ft | 472 kts | 156° |
| 2026-04-27 13:57 | 43.98400 | 25.65351 | 37191 ft | 472 kts | 156° |
| 2026-04-27 13:57 | 43.92528 | 25.69450 | 37200 ft | 472 kts | 156° |
| 2026-04-27 13:58 | 43.86662 | 25.73544 | 37199 ft | 471 kts | 156° |
| 2026-04-27 13:58 | 43.80839 | 25.77611 | 37194 ft | 471 kts | 156° |
| 2026-04-27 13:59 | 43.75267 | 25.82422 | 37191 ft | 476 kts | 141° |
| 2026-04-27 13:59 | 43.70874 | 25.89306 | 37188 ft | 480 kts | 128° |
| 2026-04-27 14:00 | 43.66890 | 25.96718 | 37179 ft | 480 kts | 128° |
| 2026-04-27 14:00 | 43.62885 | 26.04109 | 37178 ft | 480 kts | 128° |
| 2026-04-27 14:01 | 43.58873 | 26.11487 | 37185 ft | 480 kts | 128° |
| 2026-04-27 14:01 | 43.54870 | 26.18860 | 37183 ft | 480 kts | 128° |
| 2026-04-27 14:02 | 43.50874 | 26.26222 | 37175 ft | 480 kts | 129° |
| 2026-04-27 14:02 | 43.46876 | 26.33548 | 37175 ft | 480 kts | 129° |
| 2026-04-27 14:03 | 43.42854 | 26.40863 | 37181 ft | 480 kts | 129° |
| 2026-04-27 14:03 | 43.38821 | 26.48190 | 37165 ft | 480 kts | 129° |
| 2026-04-27 14:04 | 43.34798 | 26.55496 | 37183 ft | 479 kts | 129° |
| 2026-04-27 14:04 | 43.30795 | 26.62761 | 37199 ft | 479 kts | 129° |
| 2026-04-27 14:05 | 43.26769 | 26.70044 | 37211 ft | 479 kts | 129° |
| 2026-04-27 14:05 | 43.22725 | 26.77308 | 37207 ft | 479 kts | 129° |
| 2026-04-27 14:06 | 43.18674 | 26.84576 | 37207 ft | 478 kts | 129° |
| 2026-04-27 14:06 | 43.15316 | 26.90603 | 37222 ft | 479 kts | 129° |
| 2026-04-27 14:07 | 43.11276 | 26.97854 | 37223 ft | 479 kts | 129° |
| 2026-04-27 14:07 | 43.06571 | 27.06256 | 37239 ft | 478 kts | 130° |
| 2026-04-27 14:08 | 43.03171 | 27.12302 | 37235 ft | 478 kts | 130° |
| 2026-04-27 14:08 | 42.99113 | 27.19510 | 37239 ft | 478 kts | 130° |
| 2026-04-27 14:09 | 42.95054 | 27.26714 | 37251 ft | 478 kts | 130° |
| 2026-04-27 14:09 | 42.91014 | 27.33853 | 37260 ft | 479 kts | 130° |
| 2026-04-27 14:10 | 42.86933 | 27.41045 | 37255 ft | 479 kts | 130° |
| 2026-04-27 14:10 | 42.82848 | 27.48242 | 37259 ft | 479 kts | 130° |
| 2026-04-27 14:11 | 42.78760 | 27.55429 | 37265 ft | 479 kts | 130° |
| 2026-04-27 14:11 | 42.74666 | 27.62592 | 37269 ft | 479 kts | 130° |
| 2026-04-27 14:12 | 42.70571 | 27.69735 | 37271 ft | 479 kts | 130° |
| 2026-04-27 14:12 | 42.66475 | 27.76879 | 37270 ft | 479 kts | 130° |
| 2026-04-27 14:13 | 42.62374 | 27.84003 | 37279 ft | 478 kts | 130° |
| 2026-04-27 14:13 | 42.58302 | 27.91068 | 37288 ft | 478 kts | 130° |
| 2026-04-27 14:14 | 42.54203 | 27.98174 | 37287 ft | 478 kts | 130° |
| 2026-04-27 14:14 | 42.50100 | 28.05266 | 37286 ft | 478 kts | 131° |
| 2026-04-27 14:15 | 42.45986 | 28.12338 | 37288 ft | 477 kts | 131° |
| 2026-04-27 14:15 | 42.41865 | 28.19399 | 37285 ft | 477 kts | 131° |
| 2026-04-27 14:16 | 42.37752 | 28.26450 | 37283 ft | 478 kts | 131° |
| 2026-04-27 14:16 | 42.33635 | 28.33508 | 37282 ft | 478 kts | 131° |
| 2026-04-27 14:17 | 42.29511 | 28.40551 | 37272 ft | 478 kts | 131° |
| 2026-04-27 14:17 | 42.25381 | 28.47575 | 37283 ft | 477 kts | 131° |
| 2026-04-27 14:18 | 42.21253 | 28.54585 | 37287 ft | 477 kts | 131° |
| 2026-04-27 14:18 | 42.17127 | 28.61577 | 37285 ft | 476 kts | 131° |
| 2026-04-27 14:19 | 42.12996 | 28.68559 | 37283 ft | 476 kts | 131° |
| 2026-04-27 14:19 | 42.08561 | 28.75023 | 37278 ft | 471 kts | 144° |
| 2026-04-27 14:20 | 42.03011 | 28.79501 | 37272 ft | 462 kts | 161° |
| 2026-04-27 14:20 | 41.97064 | 28.82768 | 37262 ft | 462 kts | 161° |
| 2026-04-27 14:21 | 41.91125 | 28.86047 | 37271 ft | 462 kts | 161° |
| 2026-04-27 14:21 | 41.85186 | 28.89322 | 37275 ft | 461 kts | 161° |
| 2026-04-27 14:22 | 41.79246 | 28.92586 | 37273 ft | 461 kts | 161° |
| 2026-04-27 14:22 | 41.73304 | 28.95843 | 37264 ft | 461 kts | 161° |
| 2026-04-27 14:23 | 41.67362 | 28.99100 | 37270 ft | 461 kts | 161° |
| 2026-04-27 14:23 | 41.61469 | 29.02330 | 37270 ft | 460 kts | 161° |
| 2026-04-27 14:24 | 41.55542 | 29.05562 | 37267 ft | 460 kts | 161° |
| 2026-04-27 14:24 | 41.49608 | 29.08784 | 37254 ft | 460 kts | 161° |
| 2026-04-27 14:25 | 41.43673 | 29.11996 | 37252 ft | 460 kts | 161° |
| 2026-04-27 14:25 | 41.37744 | 29.15206 | 37251 ft | 460 kts | 161° |
| 2026-04-27 14:26 | 41.31812 | 29.18415 | 37243 ft | 460 kts | 161° |
| 2026-04-27 14:26 | 41.28840 | 29.20020 | 37079 ft | 461 kts | 161° |
| 2026-04-27 14:26 | 41.25867 | 29.21626 | 36811 ft | 460 kts | 161° |
| 2026-04-27 14:26 | 41.22899 | 29.23227 | 36550 ft | 460 kts | 161° |
| 2026-04-27 14:27 | 41.19933 | 29.24827 | 35982 ft | 462 kts | 161° |
| 2026-04-27 14:27 | 41.16905 | 29.26273 | 35071 ft | 463 kts | 168° |
| 2026-04-27 14:27 | 41.13756 | 29.27103 | 34204 ft | 462 kts | 176° |
| 2026-04-27 14:27 | 41.10540 | 29.27272 | 33127 ft | 462 kts | 186° |
| 2026-04-27 14:28 | 41.07358 | 29.26781 | 32114 ft | 461 kts | 193° |
| 2026-04-27 14:28 | 41.04187 | 29.26017 | 31095 ft | 464 kts | 193° |
| 2026-04-27 14:28 | 41.00999 | 29.25258 | 29953 ft | 468 kts | 193° |
| 2026-04-27 14:28 | 40.97837 | 29.24516 | 28737 ft | 458 kts | 193° |
| 2026-04-27 14:29 | 40.94713 | 29.23788 | 27479 ft | 456 kts | 193° |
| 2026-04-27 14:29 | 40.91586 | 29.23058 | 26535 ft | 455 kts | 192° |
| 2026-04-27 14:29 | 40.88500 | 29.22338 | 25814 ft | 448 kts | 192° |
| 2026-04-27 14:29 | 40.85479 | 29.21632 | 25035 ft | 444 kts | 193° |
| 2026-04-27 14:30 | 40.82453 | 29.20924 | 24267 ft | 440 kts | 193° |
| 2026-04-27 14:30 | 40.79411 | 29.20209 | 23458 ft | 436 kts | 191° |
| 2026-04-27 14:30 | 40.76476 | 29.19518 | 22715 ft | 431 kts | 193° |
| 2026-04-27 14:30 | 40.73541 | 29.18830 | 22012 ft | 426 kts | 192° |
| 2026-04-27 14:31 | 40.70638 | 29.18152 | 21347 ft | 421 kts | 192° |
| 2026-04-27 14:31 | 40.67766 | 29.17485 | 20692 ft | 416 kts | 192° |
| 2026-04-27 14:31 | 40.64924 | 29.16825 | 20053 ft | 412 kts | 192° |
| 2026-04-27 14:31 | 40.62120 | 29.16173 | 19450 ft | 407 kts | 192° |
| 2026-04-27 14:32 | 40.59343 | 29.15523 | 18871 ft | 403 kts | 192° |
| 2026-04-27 14:32 | 40.56594 | 29.14879 | 18283 ft | 399 kts | 191° |
| 2026-04-27 14:32 | 40.53872 | 29.14244 | 17717 ft | 394 kts | 191° |
| 2026-04-27 14:32 | 40.51218 | 29.13483 | 17177 ft | 387 kts | 199° |
| 2026-04-27 14:33 | 40.48813 | 29.11999 | 16662 ft | 380 kts | 214° |
| 2026-04-27 14:33 | 40.46802 | 29.09795 | 16149 ft | 373 kts | 229° |
| 2026-04-27 14:33 | 40.45293 | 29.07057 | 15558 ft | 370 kts | 242° |
| 2026-04-27 14:33 | 40.44342 | 29.03930 | 14945 ft | 368 kts | 256° |
| 2026-04-27 14:34 | 40.43968 | 29.00618 | 14341 ft | 368 kts | 267° |
| 2026-04-27 14:34 | 40.44061 | 28.97261 | 13679 ft | 368 kts | 277° |
| 2026-04-27 14:34 | 40.44532 | 28.93988 | 13099 ft | 364 kts | 281° |
| 2026-04-27 14:34 | 40.45034 | 28.90742 | 12454 ft | 361 kts | 281° |
| 2026-04-27 14:35 | 40.45570 | 28.87617 | 11684 ft | 351 kts | 287° |
| 2026-04-27 14:35 | 40.46469 | 28.84652 | 11076 ft | 349 kts | 297° |
| 2026-04-27 14:35 | 40.47606 | 28.81888 | 10818 ft | 336 kts | 298° |
| 2026-04-27 14:35 | 40.48688 | 28.79259 | 10700 ft | 321 kts | 298° |
| 2026-04-27 14:36 | 40.49732 | 28.76726 | 10580 ft | 307 kts | 300° |
| 2026-04-27 14:36 | 40.50941 | 28.74487 | 10459 ft | 295 kts | 311° |
| 2026-04-27 14:36 | 40.52362 | 28.72600 | 10289 ft | 286 kts | 315° |
| 2026-04-27 14:36 | 40.53767 | 28.70780 | 10007 ft | 282 kts | 315° |
| 2026-04-27 14:37 | 40.55146 | 28.68986 | 9828 ft | 277 kts | 315° |
| 2026-04-27 14:37 | 40.56514 | 28.67207 | 9695 ft | 277 kts | 315° |
| 2026-04-27 14:37 | 40.58028 | 28.65660 | 9572 ft | 274 kts | 329° |
| 2026-04-27 14:37 | 40.59721 | 28.64473 | 9302 ft | 275 kts | 331° |
| 2026-04-27 14:38 | 40.61412 | 28.63304 | 8889 ft | 274 kts | 332° |
| 2026-04-27 14:38 | 40.63180 | 28.62393 | 8461 ft | 274 kts | 350° |
| 2026-04-27 14:38 | 40.65073 | 28.62571 | 8038 ft | 276 kts | 18° |
| 2026-04-27 14:38 | 40.66662 | 28.63884 | 7776 ft | 276 kts | 45° |
| 2026-04-27 14:39 | 40.67649 | 28.66046 | 7571 ft | 279 kts | 68° |
| 2026-04-27 14:39 | 40.68309 | 28.68473 | 7346 ft | 282 kts | 69° |
| 2026-04-27 14:39 | 40.68954 | 28.70911 | 7110 ft | 280 kts | 69° |
| 2026-04-27 14:39 | 40.69587 | 28.73328 | 6885 ft | 278 kts | 69° |
| 2026-04-27 14:40 | 40.70217 | 28.75728 | 6658 ft | 276 kts | 70° |
| 2026-04-27 14:40 | 40.70849 | 28.78119 | 6442 ft | 274 kts | 70° |
| 2026-04-27 14:40 | 40.71476 | 28.80480 | 6220 ft | 272 kts | 70° |
| 2026-04-27 14:40 | 40.72094 | 28.82810 | 6036 ft | 269 kts | 70° |
| 2026-04-27 14:41 | 40.72705 | 28.85121 | 5830 ft | 265 kts | 70° |
| 2026-04-27 14:41 | 40.73311 | 28.87408 | 5635 ft | 264 kts | 70° |
| 2026-04-27 14:41 | 40.73911 | 28.89672 | 5395 ft | 260 kts | 70° |
| 2026-04-27 14:41 | 40.74500 | 28.91898 | 4800 ft | 253 kts | 70° |
| 2026-04-27 14:42 | 40.75065 | 28.94043 | 4444 ft | 241 kts | 70° |
| 2026-04-27 14:42 | 40.75598 | 28.96065 | 4294 ft | 226 kts | 71° |
| 2026-04-27 14:42 | 40.76095 | 28.97950 | 4190 ft | 213 kts | 71° |
| 2026-04-27 14:42 | 40.76569 | 28.99745 | 4086 ft | 202 kts | 71° |
| 2026-04-27 14:43 | 40.77043 | 29.01442 | 4004 ft | 194 kts | 65° |
| 2026-04-27 14:43 | 40.77733 | 29.02960 | 3728 ft | 194 kts | 59° |
| 2026-04-27 14:43 | 40.78455 | 29.04451 | 3399 ft | 191 kts | 58° |
| 2026-04-27 14:43 | 40.79180 | 29.05913 | 3097 ft | 190 kts | 54° |
| 2026-04-27 14:44 | 40.79896 | 29.07327 | 3005 ft | 180 kts | 60° |
| 2026-04-27 14:44 | 40.80470 | 29.08697 | 3017 ft | 160 kts | 64° |
| 2026-04-27 14:44 | 40.80950 | 29.09936 | 3005 ft | 143 kts | 65° |
| 2026-04-27 14:44 | 40.81377 | 29.11068 | 3008 ft | 134 kts | 65° |
| 2026-04-27 14:45 | 40.81787 | 29.12162 | 3030 ft | 132 kts | 65° |
| 2026-04-27 14:45 | 40.82192 | 29.13250 | 3012 ft | 133 kts | 65° |
| 2026-04-27 14:45 | 40.82594 | 29.14332 | 2923 ft | 129 kts | 65° |
| 2026-04-27 14:45 | 40.82993 | 29.15407 | 2783 ft | 131 kts | 65° |
| 2026-04-27 14:46 | 40.83389 | 29.16475 | 2613 ft | 128 kts | 65° |
| 2026-04-27 14:46 | 40.83781 | 29.17534 | 2448 ft | 128 kts | 64° |
| 2026-04-27 14:46 | 40.84171 | 29.18587 | 2275 ft | 128 kts | 63° |
| 2026-04-27 14:46 | 40.84555 | 29.19625 | 2109 ft | 127 kts | 63° |
| 2026-04-27 14:47 | 40.84943 | 29.20673 | 1932 ft | 128 kts | 63° |
| 2026-04-27 14:47 | 40.85331 | 29.21722 | 1759 ft | 126 kts | 63° |
| 2026-04-27 14:47 | 40.85717 | 29.22763 | 1582 ft | 126 kts | 63° |
| 2026-04-27 14:47 | 40.86101 | 29.23803 | 1409 ft | 126 kts | 62° |
| 2026-04-27 14:48 | 40.86485 | 29.24841 | 1235 ft | 125 kts | 62° |
| 2026-04-27 14:48 | 40.87256 | 29.26935 | 851 ft | 127 kts | 60° |
| 2026-04-27 14:48 | 40.87639 | 29.27975 | 732 ft | 125 kts | 60° |
| 2026-04-27 14:49 | 40.88020 | 29.29010 | 562 ft | 126 kts | 60° |
| 2026-04-27 14:49 | 40.88406 | 29.30055 | 367 ft | 127 kts | 62° |
| 2026-04-27 14:49 | 40.88781 | 29.31056 | 300 ft | 108 kts | 61° |
| 2026-04-27 14:49 | 40.89036 | 29.31749 | 300 ft | 59 kts | 65° |
| 2026-04-27 14:50 | 40.89148 | 29.32052 | 301 ft | 25 kts | 64° |
| 2026-04-27 14:50 | 40.89219 | 29.32237 | 301 ft | 20 kts | 59° |
| 2026-04-27 14:50 | 40.89305 | 29.32366 | 302 ft | 17 kts | 41° |
| 2026-04-27 14:50 | 40.89400 | 29.32458 | 303 ft | 17 kts | 34° |
| 2026-04-27 14:51 | 40.89481 | 29.32499 | 305 ft | 12 kts | 343° |
| 2026-04-27 14:51 | 40.89496 | 29.32437 | 303 ft | 11 kts | 265° |
| 2026-04-27 14:51 | 40.89546 | 29.32356 | 303 ft | 9 kts | 348° |
| 2026-04-27 14:51 | 40.89592 | 29.32343 | 304 ft | 11 kts | 345° |
| 2026-04-27 14:52 | 40.89700 | 29.32277 | 303 ft | 14 kts | 334° |
| 2026-04-27 14:52 | 40.89760 | 29.32239 | 305 ft | 14 kts | 334° |
| 2026-04-27 14:52 | 40.89824 | 29.32199 | 307 ft | 7 kts | 336° |
| 2026-04-27 14:52 | 40.89856 | 29.32225 | 308 ft | 6 kts | 64° |
| 2026-04-27 14:53 | 40.89877 | 29.32282 | 308 ft | 8 kts | 64° |
| 2026-04-27 14:53 | 40.89887 | 29.32309 | 308 ft | 0 kts | 64° |